sensor_id;sensor_type;location;lat;lon;timestamp;temperature;humidity
35970;DHT22;22448;51.298;6.430;2023-05-10T00:00:40;13.00;99.90
35970;DHT22;22448;51.298;6.430;2023-05-10T00:03:07;13.00;99.90
35970;DHT22;22448;51.298;6.430;2023-05-10T00:05:34;13.00;99.90
35970;DHT22;22448;51.298;6.430;2023-05-10T00:08:01;12.90;99.90
35970;DHT22;22448;51.298;6.430;2023-05-10T00:10:28;12.90;99.90
35970;DHT22;22448;51.298;6.430;2023-05-10T00:12:55;12.90;99.90
35970;DHT22;22448;51.298;6.430;2023-05-10T00:15:22;12.90;99.90
35970;DHT22;22448;51.298;6.430;2023-05-10T00:17:49;12.80;99.90
35970;DHT22;22448;51.298;6.430;2023-05-10T00:20:16;12.80;99.90
35970;DHT22;22448;51.298;6.430;2023-05-10T00:22:44;12.80;99.90
35970;DHT22;22448;51.298;6.430;2023-05-10T00:25:11;12.80;99.90
35970;DHT22;22448;51.298;6.430;2023-05-10T00:27:38;12.80;99.90
35970;DHT22;22448;51.298;6.430;2023-05-10T00:30:05;12.70;99.90
35970;DHT22;22448;51.298;6.430;2023-05-10T00:32:34;12.70;99.90
35970;DHT22;22448;51.298;6.430;2023-05-10T00:35:01;12.70;99.90
35970;DHT22;22448;51.298;6.430;2023-05-10T00:37:28;12.70;99.90
35970;DHT22;22448;51.298;6.430;2023-05-10T00:39:55;12.70;99.90
35970;DHT22;22448;51.298;6.430;2023-05-10T00:42:22;12.70;99.90
35970;DHT22;22448;51.298;6.430;2023-05-10T00:44:51;12.70;99.90
35970;DHT22;22448;51.298;6.430;2023-05-10T00:47:18;12.70;99.90
35970;DHT22;22448;51.298;6.430;2023-05-10T00:49:45;12.70;99.90
35970;DHT22;22448;51.298;6.430;2023-05-10T00:52:13;12.70;99.90
35970;DHT22;22448;51.298;6.430;2023-05-10T00:54:40;12.70;99.90
35970;DHT22;22448;51.298;6.430;2023-05-10T00:57:07;12.70;99.90
35970;DHT22;22448;51.298;6.430;2023-05-10T00:59:34;12.70;99.90
35970;DHT22;22448;51.298;6.430;2023-05-10T01:02:01;12.70;99.90
35970;DHT22;22448;51.298;6.430;2023-05-10T01:04:29;12.60;99.90
35970;DHT22;22448;51.298;6.430;2023-05-10T01:06:57;12.60;99.90
35970;DHT22;22448;51.298;6.430;2023-05-10T01:09:24;12.60;99.90
35970;DHT22;22448;51.298;6.430;2023-05-10T01:11:54;12.60;99.90
35970;DHT22;22448;51.298;6.430;2023-05-10T01:14:21;12.60;99.90
35970;DHT22;22448;51.298;6.430;2023-05-10T01:16:49;12.60;99.90
35970;DHT22;22448;51.298;6.430;2023-05-10T01:19:23;12.60;99.90
35970;DHT22;22448;51.298;6.430;2023-05-10T01:24:59;12.50;99.90
35970;DHT22;22448;51.298;6.430;2023-05-10T01:33:28;12.40;99.90
35970;DHT22;22448;51.298;6.430;2023-05-10T01:36:03;12.40;99.90
35970;DHT22;22448;51.298;6.430;2023-05-10T01:38:49;12.40;99.90
35970;DHT22;22448;51.298;6.430;2023-05-10T01:41:24;12.40;99.90
35970;DHT22;22448;51.298;6.430;2023-05-10T01:44:28;12.40;99.90
35970;DHT22;22448;51.298;6.430;2023-05-10T01:47:04;12.40;99.90
35970;DHT22;22448;51.298;6.430;2023-05-10T01:49:39;12.40;99.90
35970;DHT22;22448;51.298;6.430;2023-05-10T01:52:10;12.40;99.90
35970;DHT22;22448;51.298;6.430;2023-05-10T01:54:42;12.40;99.90
35970;DHT22;22448;51.298;6.430;2023-05-10T01:57:12;12.40;99.90
35970;DHT22;22448;51.298;6.430;2023-05-10T01:59:43;12.40;99.90
35970;DHT22;22448;51.298;6.430;2023-05-10T02:02:12;12.40;99.90
35970;DHT22;22448;51.298;6.430;2023-05-10T02:04:42;12.40;99.90
35970;DHT22;22448;51.298;6.430;2023-05-10T02:07:10;12.40;99.90
35970;DHT22;22448;51.298;6.430;2023-05-10T02:09:38;12.40;99.90
35970;DHT22;22448;51.298;6.430;2023-05-10T02:12:06;12.40;99.90
35970;DHT22;22448;51.298;6.430;2023-05-10T02:14:36;12.40;99.90
35970;DHT22;22448;51.298;6.430;2023-05-10T02:17:05;12.50;99.90
35970;DHT22;22448;51.298;6.430;2023-05-10T02:19:36;12.50;99.90
35970;DHT22;22448;51.298;6.430;2023-05-10T02:22:05;12.40;99.90
35970;DHT22;22448;51.298;6.430;2023-05-10T02:24:33;12.50;99.90
35970;DHT22;22448;51.298;6.430;2023-05-10T02:27:02;12.50;99.90
35970;DHT22;22448;51.298;6.430;2023-05-10T02:29:31;12.40;99.90
35970;DHT22;22448;51.298;6.430;2023-05-10T02:31:59;12.50;99.90
35970;DHT22;22448;51.298;6.430;2023-05-10T02:34:27;12.50;99.90
35970;DHT22;22448;51.298;6.430;2023-05-10T02:36:55;12.40;99.90
35970;DHT22;22448;51.298;6.430;2023-05-10T02:39:23;12.40;99.90
35970;DHT22;22448;51.298;6.430;2023-05-10T02:41:53;12.40;99.90
35970;DHT22;22448;51.298;6.430;2023-05-10T02:44:23;12.40;99.90
35970;DHT22;22448;51.298;6.430;2023-05-10T02:46:50;12.40;99.90
35970;DHT22;22448;51.298;6.430;2023-05-10T02:49:18;12.40;99.90
35970;DHT22;22448;51.298;6.430;2023-05-10T02:51:56;12.30;99.90
35970;DHT22;22448;51.298;6.430;2023-05-10T02:54:30;12.30;99.90
35970;DHT22;22448;51.298;6.430;2023-05-10T02:57:00;12.30;99.90
35970;DHT22;22448;51.298;6.430;2023-05-10T02:59:29;12.20;99.90
35970;DHT22;22448;51.298;6.430;2023-05-10T03:01:56;12.20;99.90
35970;DHT22;22448;51.298;6.430;2023-05-10T03:04:23;12.20;99.90
35970;DHT22;22448;51.298;6.430;2023-05-10T03:06:53;12.30;99.90
35970;DHT22;22448;51.298;6.430;2023-05-10T03:09:20;12.30;99.90
35970;DHT22;22448;51.298;6.430;2023-05-10T03:12:04;12.30;99.90
35970;DHT22;22448;51.298;6.430;2023-05-10T03:14:49;12.40;99.90
35970;DHT22;22448;51.298;6.430;2023-05-10T03:17:35;12.40;99.90
35970;DHT22;22448;51.298;6.430;2023-05-10T03:20:08;12.40;99.90
35970;DHT22;22448;51.298;6.430;2023-05-10T03:22:40;12.40;99.90
35970;DHT22;22448;51.298;6.430;2023-05-10T03:25:10;12.50;99.90
35970;DHT22;22448;51.298;6.430;2023-05-10T03:27:42;12.50;99.90
35970;DHT22;22448;51.298;6.430;2023-05-10T03:30:11;12.50;99.90
35970;DHT22;22448;51.298;6.430;2023-05-10T03:32:39;12.50;99.90
35970;DHT22;22448;51.298;6.430;2023-05-10T03:35:11;12.50;99.90
35970;DHT22;22448;51.298;6.430;2023-05-10T03:37:39;12.50;99.90
35970;DHT22;22448;51.298;6.430;2023-05-10T03:40:06;12.60;99.90
35970;DHT22;22448;51.298;6.430;2023-05-10T03:42:36;12.60;99.90
35970;DHT22;22448;51.298;6.430;2023-05-10T03:45:03;12.50;99.90
35970;DHT22;22448;51.298;6.430;2023-05-10T03:47:30;12.60;99.90
35970;DHT22;22448;51.298;6.430;2023-05-10T03:49:57;12.60;99.90
35970;DHT22;22448;51.298;6.430;2023-05-10T03:52:25;12.60;99.90
35970;DHT22;22448;51.298;6.430;2023-05-10T03:54:52;12.60;99.90
35970;DHT22;22448;51.298;6.430;2023-05-10T03:57:19;12.60;99.90
35970;DHT22;22448;51.298;6.430;2023-05-10T03:59:46;12.70;99.90
35970;DHT22;22448;51.298;6.430;2023-05-10T04:02:13;12.70;99.90
35970;DHT22;22448;51.298;6.430;2023-05-10T04:04:40;12.70;99.90
35970;DHT22;22448;51.298;6.430;2023-05-10T04:07:07;12.60;99.90
35970;DHT22;22448;51.298;6.430;2023-05-10T04:09:34;12.70;99.90
35970;DHT22;22448;51.298;6.430;2023-05-10T04:12:01;12.70;99.90
35970;DHT22;22448;51.298;6.430;2023-05-10T04:14:29;12.70;99.90
35970;DHT22;22448;51.298;6.430;2023-05-10T04:16:55;12.70;99.90
35970;DHT22;22448;51.298;6.430;2023-05-10T04:19:23;12.70;99.90
35970;DHT22;22448;51.298;6.430;2023-05-10T04:21:50;12.70;99.90
35970;DHT22;22448;51.298;6.430;2023-05-10T04:24:17;12.70;99.90
35970;DHT22;22448;51.298;6.430;2023-05-10T04:26:44;12.70;99.90
35970;DHT22;22448;51.298;6.430;2023-05-10T04:29:12;12.70;99.90
35970;DHT22;22448;51.298;6.430;2023-05-10T04:31:39;12.70;99.90
35970;DHT22;22448;51.298;6.430;2023-05-10T04:34:06;12.70;99.90
35970;DHT22;22448;51.298;6.430;2023-05-10T04:36:33;12.70;99.90
35970;DHT22;22448;51.298;6.430;2023-05-10T04:39:03;12.70;99.90
35970;DHT22;22448;51.298;6.430;2023-05-10T04:41:30;12.70;99.90
35970;DHT22;22448;51.298;6.430;2023-05-10T04:43:57;12.70;99.90
35970;DHT22;22448;51.298;6.430;2023-05-10T04:46:24;12.70;99.90
35970;DHT22;22448;51.298;6.430;2023-05-10T04:48:51;12.70;99.90
35970;DHT22;22448;51.298;6.430;2023-05-10T04:51:18;12.70;99.90
35970;DHT22;22448;51.298;6.430;2023-05-10T04:53:45;12.70;99.90
35970;DHT22;22448;51.298;6.430;2023-05-10T04:56:30;12.70;99.90
35970;DHT22;22448;51.298;6.430;2023-05-10T04:58:57;12.70;99.90
35970;DHT22;22448;51.298;6.430;2023-05-10T05:01:24;12.70;99.90
35970;DHT22;22448;51.298;6.430;2023-05-10T05:03:51;12.70;99.90
35970;DHT22;22448;51.298;6.430;2023-05-10T05:06:19;12.70;99.90
35970;DHT22;22448;51.298;6.430;2023-05-10T05:08:47;12.70;99.90
35970;DHT22;22448;51.298;6.430;2023-05-10T05:11:17;12.70;99.90
35970;DHT22;22448;51.298;6.430;2023-05-10T05:13:44;12.70;99.90
35970;DHT22;22448;51.298;6.430;2023-05-10T05:16:11;12.80;99.90
35970;DHT22;22448;51.298;6.430;2023-05-10T05:18:38;12.80;99.90
35970;DHT22;22448;51.298;6.430;2023-05-10T05:21:15;12.70;99.90
35970;DHT22;22448;51.298;6.430;2023-05-10T05:23:43;12.70;99.90
35970;DHT22;22448;51.298;6.430;2023-05-10T05:26:10;12.70;99.90
35970;DHT22;22448;51.298;6.430;2023-05-10T05:28:38;12.70;99.90
35970;DHT22;22448;51.298;6.430;2023-05-10T05:31:06;12.70;99.90
35970;DHT22;22448;51.298;6.430;2023-05-10T05:33:34;12.70;99.90
35970;DHT22;22448;51.298;6.430;2023-05-10T05:36:03;12.60;99.90
35970;DHT22;22448;51.298;6.430;2023-05-10T05:38:30;12.60;99.90
35970;DHT22;22448;51.298;6.430;2023-05-10T05:40:57;12.60;99.90
35970;DHT22;22448;51.298;6.430;2023-05-10T05:43:24;12.60;99.90
35970;DHT22;22448;51.298;6.430;2023-05-10T05:45:55;12.70;99.90
35970;DHT22;22448;51.298;6.430;2023-05-10T05:48:22;12.70;99.90
35970;DHT22;22448;51.298;6.430;2023-05-10T05:50:49;12.70;99.90
35970;DHT22;22448;51.298;6.430;2023-05-10T05:53:16;12.70;99.90
35970;DHT22;22448;51.298;6.430;2023-05-10T05:55:57;12.70;99.90
35970;DHT22;22448;51.298;6.430;2023-05-10T05:58:25;12.70;99.90
35970;DHT22;22448;51.298;6.430;2023-05-10T06:00:52;12.80;99.90
35970;DHT22;22448;51.298;6.430;2023-05-10T06:03:19;12.80;99.90
35970;DHT22;22448;51.298;6.430;2023-05-10T06:05:47;12.80;99.90
35970;DHT22;22448;51.298;6.430;2023-05-10T06:08:14;12.80;99.90
35970;DHT22;22448;51.298;6.430;2023-05-10T06:10:41;12.80;99.90
35970;DHT22;22448;51.298;6.430;2023-05-10T06:13:08;12.90;99.90
35970;DHT22;22448;51.298;6.430;2023-05-10T06:15:35;12.90;99.90
35970;DHT22;22448;51.298;6.430;2023-05-10T06:18:02;12.90;99.90
35970;DHT22;22448;51.298;6.430;2023-05-10T06:20:30;12.90;99.90
35970;DHT22;22448;51.298;6.430;2023-05-10T06:22:58;13.00;99.90
35970;DHT22;22448;51.298;6.430;2023-05-10T06:25:25;13.00;99.90
35970;DHT22;22448;51.298;6.430;2023-05-10T06:27:52;13.00;99.90
35970;DHT22;22448;51.298;6.430;2023-05-10T06:30:25;13.00;99.90
35970;DHT22;22448;51.298;6.430;2023-05-10T06:32:54;13.00;99.90
35970;DHT22;22448;51.298;6.430;2023-05-10T06:35:22;13.10;99.90
35970;DHT22;22448;51.298;6.430;2023-05-10T06:37:49;13.10;99.90
35970;DHT22;22448;51.298;6.430;2023-05-10T06:40:17;13.10;99.90
35970;DHT22;22448;51.298;6.430;2023-05-10T06:42:44;13.10;99.90
35970;DHT22;22448;51.298;6.430;2023-05-10T06:45:13;13.10;99.90
35970;DHT22;22448;51.298;6.430;2023-05-10T06:47:42;13.20;99.90
35970;DHT22;22448;51.298;6.430;2023-05-10T06:50:10;13.20;99.90
35970;DHT22;22448;51.298;6.430;2023-05-10T06:52:38;13.20;99.90
35970;DHT22;22448;51.298;6.430;2023-05-10T06:55:05;13.20;99.90
35970;DHT22;22448;51.298;6.430;2023-05-10T06:57:32;13.30;99.90
35970;DHT22;22448;51.298;6.430;2023-05-10T06:59:59;13.40;99.90
35970;DHT22;22448;51.298;6.430;2023-05-10T07:02:26;13.40;99.90
35970;DHT22;22448;51.298;6.430;2023-05-10T07:04:54;13.60;99.90
35970;DHT22;22448;51.298;6.430;2023-05-10T07:07:21;13.80;99.90
35970;DHT22;22448;51.298;6.430;2023-05-10T07:09:48;13.80;99.90
35970;DHT22;22448;51.298;6.430;2023-05-10T07:12:16;13.90;99.90
35970;DHT22;22448;51.298;6.430;2023-05-10T07:14:44;14.00;99.90
35970;DHT22;22448;51.298;6.430;2023-05-10T07:17:11;14.10;99.90
35970;DHT22;22448;51.298;6.430;2023-05-10T07:19:38;14.30;99.90
35970;DHT22;22448;51.298;6.430;2023-05-10T07:22:05;14.50;99.90
35970;DHT22;22448;51.298;6.430;2023-05-10T07:24:33;14.60;99.90
35970;DHT22;22448;51.298;6.430;2023-05-10T07:27:00;14.70;99.90
35970;DHT22;22448;51.298;6.430;2023-05-10T07:29:27;14.70;99.90
35970;DHT22;22448;51.298;6.430;2023-05-10T07:31:54;14.60;99.90
35970;DHT22;22448;51.298;6.430;2023-05-10T07:34:24;14.60;99.90
35970;DHT22;22448;51.298;6.430;2023-05-10T07:36:52;14.50;99.90
35970;DHT22;22448;51.298;6.430;2023-05-10T07:39:19;14.40;99.90
35970;DHT22;22448;51.298;6.430;2023-05-10T07:41:56;14.30;99.90
35970;DHT22;22448;51.298;6.430;2023-05-10T07:44:23;14.20;99.90
35970;DHT22;22448;51.298;6.430;2023-05-10T07:46:50;14.10;99.90
35970;DHT22;22448;51.298;6.430;2023-05-10T07:49:18;14.00;99.90
35970;DHT22;22448;51.298;6.430;2023-05-10T07:51:45;13.80;99.90
35970;DHT22;22448;51.298;6.430;2023-05-10T07:54:12;13.80;99.90
35970;DHT22;22448;51.298;6.430;2023-05-10T07:56:39;13.80;99.90
35970;DHT22;22448;51.298;6.430;2023-05-10T07:59:08;13.90;99.90
35970;DHT22;22448;51.298;6.430;2023-05-10T08:01:38;14.00;99.90
35970;DHT22;22448;51.298;6.430;2023-05-10T08:04:05;14.20;99.90
35970;DHT22;22448;51.298;6.430;2023-05-10T08:06:32;14.30;99.90
35970;DHT22;22448;51.298;6.430;2023-05-10T08:08:59;14.40;99.90
35970;DHT22;22448;51.298;6.430;2023-05-10T08:11:26;14.50;99.90
35970;DHT22;22448;51.298;6.430;2023-05-10T08:13:58;14.60;99.90
35970;DHT22;22448;51.298;6.430;2023-05-10T08:16:25;14.60;99.90
35970;DHT22;22448;51.298;6.430;2023-05-10T08:18:53;14.60;99.90
35970;DHT22;22448;51.298;6.430;2023-05-10T08:21:22;14.70;99.90
35970;DHT22;22448;51.298;6.430;2023-05-10T08:23:48;14.80;99.90
35970;DHT22;22448;51.298;6.430;2023-05-10T08:26:16;14.90;99.90
35970;DHT22;22448;51.298;6.430;2023-05-10T08:28:43;15.10;99.90
35970;DHT22;22448;51.298;6.430;2023-05-10T08:31:10;15.20;99.90
35970;DHT22;22448;51.298;6.430;2023-05-10T08:33:36;15.40;99.90
35970;DHT22;22448;51.298;6.430;2023-05-10T08:36:04;15.40;99.90
35970;DHT22;22448;51.298;6.430;2023-05-10T08:38:31;15.40;99.90
35970;DHT22;22448;51.298;6.430;2023-05-10T08:40:58;15.30;99.90
35970;DHT22;22448;51.298;6.430;2023-05-10T08:43:30;15.30;99.90
35970;DHT22;22448;51.298;6.430;2023-05-10T08:46:00;15.20;99.90
35970;DHT22;22448;51.298;6.430;2023-05-10T08:48:30;15.00;99.90
35970;DHT22;22448;51.298;6.430;2023-05-10T08:50:58;14.90;99.90
35970;DHT22;22448;51.298;6.430;2023-05-10T08:53:27;14.70;99.90
35970;DHT22;22448;51.298;6.430;2023-05-10T08:55:55;14.60;99.90
35970;DHT22;22448;51.298;6.430;2023-05-10T08:58:22;14.50;99.90
35970;DHT22;22448;51.298;6.430;2023-05-10T09:00:49;14.40;99.90
35970;DHT22;22448;51.298;6.430;2023-05-10T09:03:20;14.40;99.90
35970;DHT22;22448;51.298;6.430;2023-05-10T09:05:48;14.40;99.90
35970;DHT22;22448;51.298;6.430;2023-05-10T09:08:15;14.40;99.90
35970;DHT22;22448;51.298;6.430;2023-05-10T09:10:45;14.60;99.90
35970;DHT22;22448;51.298;6.430;2023-05-10T09:13:14;14.70;99.90
35970;DHT22;22448;51.298;6.430;2023-05-10T09:15:43;14.80;99.90
35970;DHT22;22448;51.298;6.430;2023-05-10T09:18:12;14.90;99.90
35970;DHT22;22448;51.298;6.430;2023-05-10T09:20:39;14.80;99.90
35970;DHT22;22448;51.298;6.430;2023-05-10T09:23:07;14.70;99.90
35970;DHT22;22448;51.298;6.430;2023-05-10T09:25:34;14.70;99.90
35970;DHT22;22448;51.298;6.430;2023-05-10T09:28:02;14.70;99.90
35970;DHT22;22448;51.298;6.430;2023-05-10T09:30:32;14.70;99.90
35970;DHT22;22448;51.298;6.430;2023-05-10T09:33:00;14.60;99.90
35970;DHT22;22448;51.298;6.430;2023-05-10T09:35:29;14.60;99.90
35970;DHT22;22448;51.298;6.430;2023-05-10T09:38:03;14.60;99.90
35970;DHT22;22448;51.298;6.430;2023-05-10T09:40:30;14.60;99.90
35970;DHT22;22448;51.298;6.430;2023-05-10T09:45:28;14.50;99.90
35970;DHT22;22448;51.298;6.430;2023-05-10T09:47:55;14.50;99.90
35970;DHT22;22448;51.298;6.430;2023-05-10T09:50:22;14.50;99.90
35970;DHT22;22448;51.298;6.430;2023-05-10T09:58:00;14.60;99.90
35970;DHT22;22448;51.298;6.430;2023-05-10T10:00:28;14.60;99.90
35970;DHT22;22448;51.298;6.430;2023-05-10T10:03:00;14.70;99.90
35970;DHT22;22448;51.298;6.430;2023-05-10T10:05:29;14.80;99.90
35970;DHT22;22448;51.298;6.430;2023-05-10T10:07:57;14.90;99.90
35970;DHT22;22448;51.298;6.430;2023-05-10T10:10:25;15.00;99.90
35970;DHT22;22448;51.298;6.430;2023-05-10T10:12:53;15.10;99.90
35970;DHT22;22448;51.298;6.430;2023-05-10T10:15:23;15.30;99.90
35970;DHT22;22448;51.298;6.430;2023-05-10T10:17:52;15.50;99.90
35970;DHT22;22448;51.298;6.430;2023-05-10T10:20:21;15.60;99.90
35970;DHT22;22448;51.298;6.430;2023-05-10T10:22:49;15.70;99.90
35970;DHT22;22448;51.298;6.430;2023-05-10T10:25:17;15.90;99.90
35970;DHT22;22448;51.298;6.430;2023-05-10T10:30:24;16.00;99.90
35970;DHT22;22448;51.298;6.430;2023-05-10T10:33:13;16.00;99.90
35970;DHT22;22448;51.298;6.430;2023-05-10T10:35:55;16.00;99.90
35970;DHT22;22448;51.298;6.430;2023-05-10T10:38:24;15.90;99.90
35970;DHT22;22448;51.298;6.430;2023-05-10T10:41:02;15.70;99.90
35970;DHT22;22448;51.298;6.430;2023-05-10T10:43:29;15.50;99.90
35970;DHT22;22448;51.298;6.430;2023-05-10T10:48:47;15.10;99.90
35970;DHT22;22448;51.298;6.430;2023-05-10T10:51:14;15.20;99.90
35970;DHT22;22448;51.298;6.430;2023-05-10T10:53:43;15.20;99.90
35970;DHT22;22448;51.298;6.430;2023-05-10T10:56:12;15.30;99.90
35970;DHT22;22448;51.298;6.430;2023-05-10T10:58:49;15.40;99.90
35970;DHT22;22448;51.298;6.430;2023-05-10T11:01:19;15.50;99.90
35970;DHT22;22448;51.298;6.430;2023-05-10T11:06:35;15.60;99.90
35970;DHT22;22448;51.298;6.430;2023-05-10T11:09:11;15.70;99.90
35970;DHT22;22448;51.298;6.430;2023-05-10T11:11:51;15.80;99.90
35970;DHT22;22448;51.298;6.430;2023-05-10T11:14:21;15.90;99.90
35970;DHT22;22448;51.298;6.430;2023-05-10T11:16:49;15.90;99.90
35970;DHT22;22448;51.298;6.430;2023-05-10T11:19:17;16.10;99.90
35970;DHT22;22448;51.298;6.430;2023-05-10T11:21:49;16.10;99.90
35970;DHT22;22448;51.298;6.430;2023-05-10T11:24:19;16.10;99.90
35970;DHT22;22448;51.298;6.430;2023-05-10T11:26:49;16.10;99.90
35970;DHT22;22448;51.298;6.430;2023-05-10T11:29:16;16.10;99.90
35970;DHT22;22448;51.298;6.430;2023-05-10T11:31:44;15.90;99.90
35970;DHT22;22448;51.298;6.430;2023-05-10T11:34:25;15.80;99.90
35970;DHT22;22448;51.298;6.430;2023-05-10T11:36:54;15.90;99.90
35970;DHT22;22448;51.298;6.430;2023-05-10T11:39:21;15.90;99.90
35970;DHT22;22448;51.298;6.430;2023-05-10T11:41:49;16.00;99.90
35970;DHT22;22448;51.298;6.430;2023-05-10T11:44:16;16.00;99.90
35970;DHT22;22448;51.298;6.430;2023-05-10T11:46:43;16.10;99.90
35970;DHT22;22448;51.298;6.430;2023-05-10T11:49:10;16.20;99.90
35970;DHT22;22448;51.298;6.430;2023-05-10T11:51:38;16.30;99.90
35970;DHT22;22448;51.298;6.430;2023-05-10T11:54:10;16.40;99.90
35970;DHT22;22448;51.298;6.430;2023-05-10T11:56:39;16.60;99.90
35970;DHT22;22448;51.298;6.430;2023-05-10T11:59:06;16.80;99.90
35970;DHT22;22448;51.298;6.430;2023-05-10T12:01:34;17.10;99.90
35970;DHT22;22448;51.298;6.430;2023-05-10T12:04:02;17.30;99.90
35970;DHT22;22448;51.298;6.430;2023-05-10T12:06:37;17.50;99.90
35970;DHT22;22448;51.298;6.430;2023-05-10T12:09:07;17.50;99.90
35970;DHT22;22448;51.298;6.430;2023-05-10T12:11:38;17.50;99.90
35970;DHT22;22448;51.298;6.430;2023-05-10T12:14:09;17.50;99.90
35970;DHT22;22448;51.298;6.430;2023-05-10T12:16:37;17.30;99.90
35970;DHT22;22448;51.298;6.430;2023-05-10T12:19:04;17.50;99.90
35970;DHT22;22448;51.298;6.430;2023-05-10T12:21:32;17.60;99.90
35970;DHT22;22448;51.298;6.430;2023-05-10T12:24:02;17.70;99.90
35970;DHT22;22448;51.298;6.430;2023-05-10T12:26:30;17.80;99.90
35970;DHT22;22448;51.298;6.430;2023-05-10T12:29:13;17.80;99.90
35970;DHT22;22448;51.298;6.430;2023-05-10T12:31:58;17.80;99.90
35970;DHT22;22448;51.298;6.430;2023-05-10T12:34:33;17.90;99.90
35970;DHT22;22448;51.298;6.430;2023-05-10T12:37:02;18.00;99.90
35970;DHT22;22448;51.298;6.430;2023-05-10T12:39:40;18.10;99.90
35970;DHT22;22448;51.298;6.430;2023-05-10T12:42:09;18.20;99.90
35970;DHT22;22448;51.298;6.430;2023-05-10T12:44:36;18.30;99.90
35970;DHT22;22448;51.298;6.430;2023-05-10T12:47:03;18.60;99.90
35970;DHT22;22448;51.298;6.430;2023-05-10T12:49:30;18.80;99.90
35970;DHT22;22448;51.298;6.430;2023-05-10T12:51:57;19.20;99.90
35970;DHT22;22448;51.298;6.430;2023-05-10T12:54:24;19.40;99.90
35970;DHT22;22448;51.298;6.430;2023-05-10T12:56:51;19.40;99.90
35970;DHT22;22448;51.298;6.430;2023-05-10T12:59:18;19.40;99.90
35970;DHT22;22448;51.298;6.430;2023-05-10T13:01:45;19.40;99.90
35970;DHT22;22448;51.298;6.430;2023-05-10T13:04:12;19.40;99.90
35970;DHT22;22448;51.298;6.430;2023-05-10T13:06:39;19.40;99.90
35970;DHT22;22448;51.298;6.430;2023-05-10T13:09:06;19.30;99.90
35970;DHT22;22448;51.298;6.430;2023-05-10T13:11:33;19.20;99.90
35970;DHT22;22448;51.298;6.430;2023-05-10T13:14:00;19.00;99.90
35970;DHT22;22448;51.298;6.430;2023-05-10T13:16:29;19.10;99.90
35970;DHT22;22448;51.298;6.430;2023-05-10T13:18:57;19.10;99.90
35970;DHT22;22448;51.298;6.430;2023-05-10T13:21:25;19.10;99.90
35970;DHT22;22448;51.298;6.430;2023-05-10T13:23:53;19.10;99.90
35970;DHT22;22448;51.298;6.430;2023-05-10T13:26:20;19.20;99.90
35970;DHT22;22448;51.298;6.430;2023-05-10T13:28:47;19.10;99.90
35970;DHT22;22448;51.298;6.430;2023-05-10T13:31:15;19.00;99.90
35970;DHT22;22448;51.298;6.430;2023-05-10T13:33:42;18.80;99.90
35970;DHT22;22448;51.298;6.430;2023-05-10T13:36:09;18.80;99.90
35970;DHT22;22448;51.298;6.430;2023-05-10T13:38:36;18.70;99.90
35970;DHT22;22448;51.298;6.430;2023-05-10T13:41:04;18.80;99.90
35970;DHT22;22448;51.298;6.430;2023-05-10T13:43:31;18.60;99.90
35970;DHT22;22448;51.298;6.430;2023-05-10T13:45:58;18.60;99.90
35970;DHT22;22448;51.298;6.430;2023-05-10T13:48:25;18.70;99.90
35970;DHT22;22448;51.298;6.430;2023-05-10T13:50:52;18.70;99.90
35970;DHT22;22448;51.298;6.430;2023-05-10T13:53:19;18.70;99.90
35970;DHT22;22448;51.298;6.430;2023-05-10T13:55:46;18.60;99.90
35970;DHT22;22448;51.298;6.430;2023-05-10T13:58:13;18.60;99.90
35970;DHT22;22448;51.298;6.430;2023-05-10T14:00:40;18.60;99.90
35970;DHT22;22448;51.298;6.430;2023-05-10T14:03:08;18.60;99.90
35970;DHT22;22448;51.298;6.430;2023-05-10T14:05:38;18.50;99.90
35970;DHT22;22448;51.298;6.430;2023-05-10T14:08:05;18.40;99.90
35970;DHT22;22448;51.298;6.430;2023-05-10T14:10:32;18.30;99.90
35970;DHT22;22448;51.298;6.430;2023-05-10T14:12:59;18.40;99.90
35970;DHT22;22448;51.298;6.430;2023-05-10T14:15:26;18.50;99.90
35970;DHT22;22448;51.298;6.430;2023-05-10T14:17:53;18.60;99.90
35970;DHT22;22448;51.298;6.430;2023-05-10T14:20:20;18.60;99.90
35970;DHT22;22448;51.298;6.430;2023-05-10T14:22:47;18.80;99.90
35970;DHT22;22448;51.298;6.430;2023-05-10T14:25:14;18.90;99.90
35970;DHT22;22448;51.298;6.430;2023-05-10T14:27:42;19.00;99.90
35970;DHT22;22448;51.298;6.430;2023-05-10T14:30:09;19.10;99.90
35970;DHT22;22448;51.298;6.430;2023-05-10T14:32:36;19.10;99.90
35970;DHT22;22448;51.298;6.430;2023-05-10T14:35:04;19.20;99.90
35970;DHT22;22448;51.298;6.430;2023-05-10T14:37:32;19.10;99.90
35970;DHT22;22448;51.298;6.430;2023-05-10T14:39:59;19.00;99.90
35970;DHT22;22448;51.298;6.430;2023-05-10T14:42:27;18.80;99.90
35970;DHT22;22448;51.298;6.430;2023-05-10T14:44:55;18.70;99.90
35970;DHT22;22448;51.298;6.430;2023-05-10T14:47:22;18.70;99.90
35970;DHT22;22448;51.298;6.430;2023-05-10T14:49:49;18.70;99.90
35970;DHT22;22448;51.298;6.430;2023-05-10T14:52:16;18.70;99.90
35970;DHT22;22448;51.298;6.430;2023-05-10T14:54:43;18.70;99.90
35970;DHT22;22448;51.298;6.430;2023-05-10T14:57:10;18.60;99.90
35970;DHT22;22448;51.298;6.430;2023-05-10T14:59:37;18.40;99.90
35970;DHT22;22448;51.298;6.430;2023-05-10T15:02:05;18.20;99.90
35970;DHT22;22448;51.298;6.430;2023-05-10T15:04:32;18.00;99.90
35970;DHT22;22448;51.298;6.430;2023-05-10T15:07:00;17.80;99.90
35970;DHT22;22448;51.298;6.430;2023-05-10T15:09:27;17.50;99.90
35970;DHT22;22448;51.298;6.430;2023-05-10T15:11:54;17.20;99.90
35970;DHT22;22448;51.298;6.430;2023-05-10T15:14:22;16.90;99.90
35970;DHT22;22448;51.298;6.430;2023-05-10T15:16:49;16.40;99.90
35970;DHT22;22448;51.298;6.430;2023-05-10T15:19:16;16.20;99.90
35970;DHT22;22448;51.298;6.430;2023-05-10T15:21:43;16.00;99.90
35970;DHT22;22448;51.298;6.430;2023-05-10T15:24:11;15.80;99.90
35970;DHT22;22448;51.298;6.430;2023-05-10T15:26:38;15.60;99.90
35970;DHT22;22448;51.298;6.430;2023-05-10T15:29:05;15.50;99.90
35970;DHT22;22448;51.298;6.430;2023-05-10T15:31:32;15.30;99.90
35970;DHT22;22448;51.298;6.430;2023-05-10T15:34:02;15.20;99.90
35970;DHT22;22448;51.298;6.430;2023-05-10T15:36:31;15.10;99.90
35970;DHT22;22448;51.298;6.430;2023-05-10T15:38:58;14.90;99.90
35970;DHT22;22448;51.298;6.430;2023-05-10T15:41:25;14.70;99.90
35970;DHT22;22448;51.298;6.430;2023-05-10T15:43:53;14.60;99.90
35970;DHT22;22448;51.298;6.430;2023-05-10T15:46:20;14.40;99.90
35970;DHT22;22448;51.298;6.430;2023-05-10T15:48:48;14.20;99.90
35970;DHT22;22448;51.298;6.430;2023-05-10T15:51:15;14.10;99.90
35970;DHT22;22448;51.298;6.430;2023-05-10T15:53:42;14.00;99.90
35970;DHT22;22448;51.298;6.430;2023-05-10T15:56:29;14.00;99.90
35970;DHT22;22448;51.298;6.430;2023-05-10T15:58:56;14.00;99.90
35970;DHT22;22448;51.298;6.430;2023-05-10T16:01:23;13.90;99.90
35970;DHT22;22448;51.298;6.430;2023-05-10T16:03:50;13.90;99.90